sensor_id;sensor_type;location;lat;lon;timestamp;P1;durP1;ratioP1;P2;durP2;ratioP2
67185;SDS011;54116;53.518;49.398;2023-10-31T00:00:17;10.75;;;3.33;;
67185;SDS011;54116;53.518;49.398;2023-10-31T00:02:43;13.40;;;4.63;;
67185;SDS011;54116;53.518;49.398;2023-10-31T00:05:09;9.90;;;4.35;;
67185;SDS011;54116;53.518;49.398;2023-10-31T00:07:35;10.43;;;3.92;;
67185;SDS011;54116;53.518;49.398;2023-10-31T00:10:01;10.50;;;4.00;;
67185;SDS011;54116;53.518;49.398;2023-10-31T00:12:28;11.50;;;3.95;;
67185;SDS011;54116;53.518;49.398;2023-10-31T00:14:54;9.45;;;3.53;;
67185;SDS011;54116;53.518;49.398;2023-10-31T00:17:20;9.07;;;3.58;;
67185;SDS011;54116;53.518;49.398;2023-10-31T00:19:46;12.30;;;4.15;;
67185;SDS011;54116;53.518;49.398;2023-10-31T00:22:12;9.98;;;3.47;;
67185;SDS011;54116;53.518;49.398;2023-10-31T00:27:04;10.25;;;3.72;;
67185;SDS011;54116;53.518;49.398;2023-10-31T00:29:30;9.82;;;3.75;;
67185;SDS011;54116;53.518;49.398;2023-10-31T00:34:22;11.20;;;3.33;;
67185;SDS011;54116;53.518;49.398;2023-10-31T00:39:14;9.38;;;3.30;;
67185;SDS011;54116;53.518;49.398;2023-10-31T00:41:52;9.77;;;3.17;;
67185;SDS011;54116;53.518;49.398;2023-10-31T00:44:19;8.65;;;3.53;;
67185;SDS011;54116;53.518;49.398;2023-10-31T00:49:10;9.48;;;3.40;;
67185;SDS011;54116;53.518;49.398;2023-10-31T00:51:36;10.05;;;3.63;;
67185;SDS011;54116;53.518;49.398;2023-10-31T00:54:02;9.25;;;3.13;;
67185;SDS011;54116;53.518;49.398;2023-10-31T00:56:28;9.50;;;3.58;;
67185;SDS011;54116;53.518;49.398;2023-10-31T00:58:55;9.32;;;3.53;;
67185;SDS011;54116;53.518;49.398;2023-10-31T01:01:21;8.05;;;3.08;;
67185;SDS011;54116;53.518;49.398;2023-10-31T01:03:47;9.00;;;3.83;;
67185;SDS011;54116;53.518;49.398;2023-10-31T01:06:13;9.65;;;3.58;;
67185;SDS011;54116;53.518;49.398;2023-10-31T01:08:39;9.55;;;3.63;;
67185;SDS011;54116;53.518;49.398;2023-10-31T01:11:05;8.25;;;3.40;;
67185;SDS011;54116;53.518;49.398;2023-10-31T01:13:31;7.82;;;3.00;;
67185;SDS011;54116;53.518;49.398;2023-10-31T01:15:58;8.35;;;3.40;;
67185;SDS011;54116;53.518;49.398;2023-10-31T01:18:24;9.68;;;3.53;;
67185;SDS011;54116;53.518;49.398;2023-10-31T01:23:16;9.38;;;3.67;;
67185;SDS011;54116;53.518;49.398;2023-10-31T01:28:08;8.75;;;2.90;;
67185;SDS011;54116;53.518;49.398;2023-10-31T01:33:00;10.30;;;3.40;;
67185;SDS011;54116;53.518;49.398;2023-10-31T01:35:26;8.73;;;3.35;;
67185;SDS011;54116;53.518;49.398;2023-10-31T01:40:18;8.52;;;3.40;;
67185;SDS011;54116;53.518;49.398;2023-10-31T01:47:36;8.70;;;3.15;;
67185;SDS011;54116;53.518;49.398;2023-10-31T01:52:28;8.25;;;3.03;;
67185;SDS011;54116;53.518;49.398;2023-10-31T01:54:58;9.95;;;3.40;;
67185;SDS011;54116;53.518;49.398;2023-10-31T01:57:24;11.60;;;3.50;;
67185;SDS011;54116;53.518;49.398;2023-10-31T02:02:16;10.13;;;3.38;;
67185;SDS011;54116;53.518;49.398;2023-10-31T02:04:45;8.75;;;3.25;;
67185;SDS011;54116;53.518;49.398;2023-10-31T02:09:37;7.45;;;3.10;;
67185;SDS011;54116;53.518;49.398;2023-10-31T02:12:03;9.20;;;3.60;;
67185;SDS011;54116;53.518;49.398;2023-10-31T02:14:29;8.60;;;3.13;;
67185;SDS011;54116;53.518;49.398;2023-10-31T02:16:56;7.57;;;3.47;;
67185;SDS011;54116;53.518;49.398;2023-10-31T02:26:39;10.45;;;3.60;;
67185;SDS011;54116;53.518;49.398;2023-10-31T02:31:32;8.90;;;3.75;;
67185;SDS011;54116;53.518;49.398;2023-10-31T02:38:50;8.15;;;3.40;;
67185;SDS011;54116;53.518;49.398;2023-10-31T02:43:42;10.18;;;3.90;;
67185;SDS011;54116;53.518;49.398;2023-10-31T02:46:08;8.13;;;3.60;;
67185;SDS011;54116;53.518;49.398;2023-10-31T02:48:37;10.13;;;3.75;;
67185;SDS011;54116;53.518;49.398;2023-10-31T02:51:05;8.95;;;3.80;;
67185;SDS011;54116;53.518;49.398;2023-10-31T02:53:33;9.20;;;3.55;;
67185;SDS011;54116;53.518;49.398;2023-10-31T02:56:00;10.02;;;3.88;;
67185;SDS011;54116;53.518;49.398;2023-10-31T02:58:26;9.18;;;3.92;;
67185;SDS011;54116;53.518;49.398;2023-10-31T03:05:43;9.77;;;3.53;;
67185;SDS011;54116;53.518;49.398;2023-10-31T03:10:40;8.95;;;3.60;;
67185;SDS011;54116;53.518;49.398;2023-10-31T03:13:07;10.23;;;3.47;;
67185;SDS011;54116;53.518;49.398;2023-10-31T03:18:01;8.15;;;3.35;;
67185;SDS011;54116;53.518;49.398;2023-10-31T03:20:28;8.25;;;3.50;;
67185;SDS011;54116;53.518;49.398;2023-10-31T03:27:46;9.45;;;3.55;;
67185;SDS011;54116;53.518;49.398;2023-10-31T03:35:04;9.70;;;3.35;;
67185;SDS011;54116;53.518;49.398;2023-10-31T03:37:30;7.45;;;3.22;;
67185;SDS011;54116;53.518;49.398;2023-10-31T03:44:48;9.45;;;3.38;;
67185;SDS011;54116;53.518;49.398;2023-10-31T03:52:06;8.40;;;3.30;;
67185;SDS011;54116;53.518;49.398;2023-10-31T03:54:32;8.00;;;3.72;;
67185;SDS011;54116;53.518;49.398;2023-10-31T04:01:50;10.30;;;3.63;;
67185;SDS011;54116;53.518;49.398;2023-10-31T04:09:09;8.38;;;3.17;;
67185;SDS011;54116;53.518;49.398;2023-10-31T04:11:35;9.52;;;4.20;;
67185;SDS011;54116;53.518;49.398;2023-10-31T04:16:28;10.82;;;3.45;;
67185;SDS011;54116;53.518;49.398;2023-10-31T04:18:55;9.60;;;3.47;;
67185;SDS011;54116;53.518;49.398;2023-10-31T04:21:21;11.27;;;3.78;;
67185;SDS011;54116;53.518;49.398;2023-10-31T04:26:13;9.73;;;3.85;;
67185;SDS011;54116;53.518;49.398;2023-10-31T04:28:39;6.93;;;3.10;;
67185;SDS011;54116;53.518;49.398;2023-10-31T04:33:31;9.07;;;3.72;;
67185;SDS011;54116;53.518;49.398;2023-10-31T04:35:57;10.13;;;3.38;;
67185;SDS011;54116;53.518;49.398;2023-10-31T04:38:23;8.75;;;3.33;;
67185;SDS011;54116;53.518;49.398;2023-10-31T04:40:49;10.18;;;4.15;;
67185;SDS011;54116;53.518;49.398;2023-10-31T04:43:15;9.27;;;3.70;;
67185;SDS011;54116;53.518;49.398;2023-10-31T04:45:41;8.50;;;3.58;;
67185;SDS011;54116;53.518;49.398;2023-10-31T04:48:07;9.25;;;3.53;;
67185;SDS011;54116;53.518;49.398;2023-10-31T04:52:59;7.60;;;3.42;;
67185;SDS011;54116;53.518;49.398;2023-10-31T04:55:25;8.73;;;3.58;;
67185;SDS011;54116;53.518;49.398;2023-10-31T05:00:17;8.30;;;3.85;;
67185;SDS011;54116;53.518;49.398;2023-10-31T05:02:43;8.77;;;4.13;;
67185;SDS011;54116;53.518;49.398;2023-10-31T05:07:35;6.90;;;3.00;;
67185;SDS011;54116;53.518;49.398;2023-10-31T05:10:01;10.05;;;3.78;;
67185;SDS011;54116;53.518;49.398;2023-10-31T05:12:27;9.15;;;3.63;;
67185;SDS011;54116;53.518;49.398;2023-10-31T05:14:53;10.18;;;3.88;;
67185;SDS011;54116;53.518;49.398;2023-10-31T05:17:19;9.30;;;4.05;;
67185;SDS011;54116;53.518;49.398;2023-10-31T05:19:45;7.93;;;3.33;;
67185;SDS011;54116;53.518;49.398;2023-10-31T05:22:12;8.15;;;3.80;;
67185;SDS011;54116;53.518;49.398;2023-10-31T05:24:38;9.55;;;3.60;;
67185;SDS011;54116;53.518;49.398;2023-10-31T05:27:04;9.80;;;3.55;;
67185;SDS011;54116;53.518;49.398;2023-10-31T05:29:32;8.50;;;3.25;;
67185;SDS011;54116;53.518;49.398;2023-10-31T05:31:59;11.07;;;3.75;;
67185;SDS011;54116;53.518;49.398;2023-10-31T05:34:26;8.13;;;3.35;;
67185;SDS011;54116;53.518;49.398;2023-10-31T05:36:52;8.63;;;3.63;;
67185;SDS011;54116;53.518;49.398;2023-10-31T05:39:18;9.07;;;4.05;;
67185;SDS011;54116;53.518;49.398;2023-10-31T05:41:44;7.95;;;3.45;;
67185;SDS011;54116;53.518;49.398;2023-10-31T05:44:10;8.57;;;3.55;;
67185;SDS011;54116;53.518;49.398;2023-10-31T05:46:39;8.00;;;3.30;;
67185;SDS011;54116;53.518;49.398;2023-10-31T05:49:08;8.35;;;3.38;;
67185;SDS011;54116;53.518;49.398;2023-10-31T05:51:35;11.50;;;3.70;;
67185;SDS011;54116;53.518;49.398;2023-10-31T05:54:01;7.50;;;3.10;;
67185;SDS011;54116;53.518;49.398;2023-10-31T05:56:27;8.85;;;3.58;;
67185;SDS011;54116;53.518;49.398;2023-10-31T05:58:53;8.13;;;3.50;;
67185;SDS011;54116;53.518;49.398;2023-10-31T06:01:19;9.13;;;3.72;;
67185;SDS011;54116;53.518;49.398;2023-10-31T06:03:45;7.88;;;3.50;;
67185;SDS011;54116;53.518;49.398;2023-10-31T06:06:12;8.27;;;3.67;;
67185;SDS011;54116;53.518;49.398;2023-10-31T06:08:38;10.93;;;3.25;;
67185;SDS011;54116;53.518;49.398;2023-10-31T06:11:05;7.90;;;3.42;;
67185;SDS011;54116;53.518;49.398;2023-10-31T06:13:32;7.68;;;3.22;;
67185;SDS011;54116;53.518;49.398;2023-10-31T06:16:00;8.77;;;3.25;;
67185;SDS011;54116;53.518;49.398;2023-10-31T06:18:26;8.23;;;3.33;;
67185;SDS011;54116;53.518;49.398;2023-10-31T06:20:53;9.13;;;3.58;;
67185;SDS011;54116;53.518;49.398;2023-10-31T06:23:19;9.95;;;3.22;;
67185;SDS011;54116;53.518;49.398;2023-10-31T06:25:45;7.30;;;3.33;;
67185;SDS011;54116;53.518;49.398;2023-10-31T06:28:12;8.77;;;3.15;;
67185;SDS011;54116;53.518;49.398;2023-10-31T06:30:38;11.68;;;3.80;;
67185;SDS011;54116;53.518;49.398;2023-10-31T06:33:04;9.93;;;3.10;;
67185;SDS011;54116;53.518;49.398;2023-10-31T06:35:30;12.27;;;3.58;;
67185;SDS011;54116;53.518;49.398;2023-10-31T06:37:56;11.57;;;4.60;;
67185;SDS011;54116;53.518;49.398;2023-10-31T06:40:23;9.70;;;3.83;;
67185;SDS011;54116;53.518;49.398;2023-10-31T06:42:50;8.90;;;3.58;;
67185;SDS011;54116;53.518;49.398;2023-10-31T06:45:16;9.60;;;3.92;;
67185;SDS011;54116;53.518;49.398;2023-10-31T06:47:42;9.48;;;4.10;;
67185;SDS011;54116;53.518;49.398;2023-10-31T06:50:08;9.93;;;4.03;;
67185;SDS011;54116;53.518;49.398;2023-10-31T06:52:35;8.00;;;3.58;;
67185;SDS011;54116;53.518;49.398;2023-10-31T06:55:01;7.82;;;3.67;;
67185;SDS011;54116;53.518;49.398;2023-10-31T06:57:28;10.40;;;3.80;;
67185;SDS011;54116;53.518;49.398;2023-10-31T06:59:54;9.43;;;4.03;;
67185;SDS011;54116;53.518;49.398;2023-10-31T07:02:21;8.45;;;4.18;;
67185;SDS011;54116;53.518;49.398;2023-10-31T07:04:47;9.35;;;3.80;;
67185;SDS011;54116;53.518;49.398;2023-10-31T07:07:13;10.60;;;4.03;;
67185;SDS011;54116;53.518;49.398;2023-10-31T07:09:39;9.70;;;4.45;;
67185;SDS011;54116;53.518;49.398;2023-10-31T07:12:05;10.88;;;3.97;;
67185;SDS011;54116;53.518;49.398;2023-10-31T07:14:32;10.52;;;4.32;;
67185;SDS011;54116;53.518;49.398;2023-10-31T07:16:58;10.52;;;4.30;;
67185;SDS011;54116;53.518;49.398;2023-10-31T07:19:24;10.48;;;4.35;;
67185;SDS011;54116;53.518;49.398;2023-10-31T07:21:50;11.82;;;3.97;;
67185;SDS011;54116;53.518;49.398;2023-10-31T07:24:16;9.73;;;3.75;;
67185;SDS011;54116;53.518;49.398;2023-10-31T07:26:42;11.88;;;4.53;;
67185;SDS011;54116;53.518;49.398;2023-10-31T07:29:09;10.15;;;4.55;;
67185;SDS011;54116;53.518;49.398;2023-10-31T07:31:35;10.73;;;4.30;;
67185;SDS011;54116;53.518;49.398;2023-10-31T07:34:04;12.85;;;5.70;;
67185;SDS011;54116;53.518;49.398;2023-10-31T07:36:32;11.57;;;4.43;;
67185;SDS011;54116;53.518;49.398;2023-10-31T07:39:00;9.40;;;4.32;;
67185;SDS011;54116;53.518;49.398;2023-10-31T07:41:27;10.10;;;4.18;;
67185;SDS011;54116;53.518;49.398;2023-10-31T07:43:53;10.82;;;4.32;;
67185;SDS011;54116;53.518;49.398;2023-10-31T07:46:19;10.95;;;4.47;;
67185;SDS011;54116;53.518;49.398;2023-10-31T07:48:45;12.05;;;4.13;;
67185;SDS011;54116;53.518;49.398;2023-10-31T07:51:11;12.18;;;4.75;;
67185;SDS011;54116;53.518;49.398;2023-10-31T07:53:37;9.88;;;4.38;;
67185;SDS011;54116;53.518;49.398;2023-10-31T07:56:03;11.45;;;4.85;;
67185;SDS011;54116;53.518;49.398;2023-10-31T07:58:29;11.48;;;4.47;;
67185;SDS011;54116;53.518;49.398;2023-10-31T08:00:55;9.82;;;4.05;;
67185;SDS011;54116;53.518;49.398;2023-10-31T08:03:22;9.15;;;4.30;;
67185;SDS011;54116;53.518;49.398;2023-10-31T08:05:48;10.63;;;4.07;;
67185;SDS011;54116;53.518;49.398;2023-10-31T08:08:14;12.52;;;4.00;;
67185;SDS011;54116;53.518;49.398;2023-10-31T08:10:40;9.43;;;4.30;;
67185;SDS011;54116;53.518;49.398;2023-10-31T08:13:06;10.73;;;4.00;;
67185;SDS011;54116;53.518;49.398;2023-10-31T08:15:32;9.07;;;4.55;;
67185;SDS011;54116;53.518;49.398;2023-10-31T08:17:58;10.77;;;4.20;;
67185;SDS011;54116;53.518;49.398;2023-10-31T08:20:24;12.63;;;4.20;;
67185;SDS011;54116;53.518;49.398;2023-10-31T08:22:51;10.65;;;4.22;;
67185;SDS011;54116;53.518;49.398;2023-10-31T08:25:17;10.93;;;4.03;;
67185;SDS011;54116;53.518;49.398;2023-10-31T08:27:43;9.60;;;4.10;;
67185;SDS011;54116;53.518;49.398;2023-10-31T08:30:09;11.52;;;4.03;;
67185;SDS011;54116;53.518;49.398;2023-10-31T08:32:35;11.32;;;4.47;;
67185;SDS011;54116;53.518;49.398;2023-10-31T08:35:01;9.80;;;3.83;;
67185;SDS011;54116;53.518;49.398;2023-10-31T08:37:28;10.93;;;4.80;;
67185;SDS011;54116;53.518;49.398;2023-10-31T08:39:54;11.15;;;4.40;;
67185;SDS011;54116;53.518;49.398;2023-10-31T08:42:20;8.95;;;4.03;;
67185;SDS011;54116;53.518;49.398;2023-10-31T08:44:46;9.75;;;4.25;;
67185;SDS011;54116;53.518;49.398;2023-10-31T08:47:12;7.93;;;3.78;;
67185;SDS011;54116;53.518;49.398;2023-10-31T08:49:38;10.05;;;4.13;;
67185;SDS011;54116;53.518;49.398;2023-10-31T08:52:04;8.05;;;4.38;;
67185;SDS011;54116;53.518;49.398;2023-10-31T08:54:30;11.10;;;4.78;;
67185;SDS011;54116;53.518;49.398;2023-10-31T08:56:56;9.25;;;4.15;;
67185;SDS011;54116;53.518;49.398;2023-10-31T08:59:22;9.77;;;4.35;;
67185;SDS011;54116;53.518;49.398;2023-10-31T09:01:48;12.63;;;4.05;;
67185;SDS011;54116;53.518;49.398;2023-10-31T09:04:14;9.20;;;4.43;;
67185;SDS011;54116;53.518;49.398;2023-10-31T09:06:40;10.25;;;3.90;;
67185;SDS011;54116;53.518;49.398;2023-10-31T09:09:06;8.80;;;3.90;;
67185;SDS011;54116;53.518;49.398;2023-10-31T09:11:33;8.10;;;4.15;;
67185;SDS011;54116;53.518;49.398;2023-10-31T09:13:59;9.85;;;3.85;;
67185;SDS011;54116;53.518;49.398;2023-10-31T09:16:25;9.90;;;3.97;;
67185;SDS011;54116;53.518;49.398;2023-10-31T09:18:51;9.15;;;3.92;;
67185;SDS011;54116;53.518;49.398;2023-10-31T09:21:18;7.68;;;3.60;;
67185;SDS011;54116;53.518;49.398;2023-10-31T09:23:44;8.75;;;4.03;;
67185;SDS011;54116;53.518;49.398;2023-10-31T09:26:10;9.27;;;3.75;;
67185;SDS011;54116;53.518;49.398;2023-10-31T09:28:36;7.93;;;3.92;;
67185;SDS011;54116;53.518;49.398;2023-10-31T09:31:03;8.75;;;3.63;;
67185;SDS011;54116;53.518;49.398;2023-10-31T09:33:29;10.70;;;4.18;;
67185;SDS011;54116;53.518;49.398;2023-10-31T09:35:55;7.90;;;3.58;;
67185;SDS011;54116;53.518;49.398;2023-10-31T09:38:21;9.02;;;3.70;;
67185;SDS011;54116;53.518;49.398;2023-10-31T09:40:47;7.28;;;3.45;;
67185;SDS011;54116;53.518;49.398;2023-10-31T09:43:13;8.32;;;3.65;;
67185;SDS011;54116;53.518;49.398;2023-10-31T09:45:39;8.13;;;3.53;;
67185;SDS011;54116;53.518;49.398;2023-10-31T09:48:07;7.45;;;3.72;;
67185;SDS011;54116;53.518;49.398;2023-10-31T09:50:33;7.82;;;3.92;;
67185;SDS011;54116;53.518;49.398;2023-10-31T09:52:59;8.25;;;3.72;;
67185;SDS011;54116;53.518;49.398;2023-10-31T09:55:25;8.30;;;3.70;;
67185;SDS011;54116;53.518;49.398;2023-10-31T09:57:51;9.40;;;3.70;;
67185;SDS011;54116;53.518;49.398;2023-10-31T10:00:19;8.60;;;3.85;;
67185;SDS011;54116;53.518;49.398;2023-10-31T10:02:48;9.63;;;3.55;;
67185;SDS011;54116;53.518;49.398;2023-10-31T10:05:18;8.05;;;3.40;;
67185;SDS011;54116;53.518;49.398;2023-10-31T10:07:46;8.82;;;3.38;;
67185;SDS011;54116;53.518;49.398;2023-10-31T10:10:13;10.57;;;3.80;;
67185;SDS011;54116;53.518;49.398;2023-10-31T10:12:41;7.05;;;3.75;;
67185;SDS011;54116;53.518;49.398;2023-10-31T10:15:09;7.95;;;3.45;;
67185;SDS011;54116;53.518;49.398;2023-10-31T10:17:38;7.78;;;3.53;;
67185;SDS011;54116;53.518;49.398;2023-10-31T10:20:08;8.73;;;3.35;;
67185;SDS011;54116;53.518;49.398;2023-10-31T10:22:39;8.40;;;3.53;;
67185;SDS011;54116;53.518;49.398;2023-10-31T10:25:06;7.03;;;3.03;;
67185;SDS011;54116;53.518;49.398;2023-10-31T10:27:32;8.35;;;3.83;;
67185;SDS011;54116;53.518;49.398;2023-10-31T10:29:59;7.10;;;2.78;;
67185;SDS011;54116;53.518;49.398;2023-10-31T10:32:25;7.97;;;3.10;;
67185;SDS011;54116;53.518;49.398;2023-10-31T10:34:51;7.18;;;3.45;;
67185;SDS011;54116;53.518;49.398;2023-10-31T10:37:17;7.15;;;2.92;;
67185;SDS011;54116;53.518;49.398;2023-10-31T10:39:45;6.43;;;2.90;;
67185;SDS011;54116;53.518;49.398;2023-10-31T10:42:16;6.10;;;2.80;;
67185;SDS011;54116;53.518;49.398;2023-10-31T10:44:46;8.45;;;3.38;;
67185;SDS011;54116;53.518;49.398;2023-10-31T10:47:14;5.90;;;2.78;;
67185;SDS011;54116;53.518;49.398;2023-10-31T10:49:41;9.60;;;3.63;;
67185;SDS011;54116;53.518;49.398;2023-10-31T11:00:04;7.43;;;3.40;;
67185;SDS011;54116;53.518;49.398;2023-10-31T11:02:34;6.03;;;2.83;;
67185;SDS011;54116;53.518;49.398;2023-10-31T11:05:04;4.78;;;2.55;;
67185;SDS011;54116;53.518;49.398;2023-10-31T11:07:32;6.45;;;2.92;;
67185;SDS011;54116;53.518;49.398;2023-10-31T11:10:00;7.20;;;2.75;;
67185;SDS011;54116;53.518;49.398;2023-10-31T11:12:30;6.57;;;3.08;;
67185;SDS011;54116;53.518;49.398;2023-10-31T11:14:57;8.40;;;2.80;;
67185;SDS011;54116;53.518;49.398;2023-10-31T11:17:33;6.13;;;2.30;;
67185;SDS011;54116;53.518;49.398;2023-10-31T11:20:01;6.55;;;2.70;;
67185;SDS011;54116;53.518;49.398;2023-10-31T11:22:38;6.07;;;3.22;;
67185;SDS011;54116;53.518;49.398;2023-10-31T11:25:17;6.28;;;2.85;;
67185;SDS011;54116;53.518;49.398;2023-10-31T11:27:56;6.35;;;2.90;;
67185;SDS011;54116;53.518;49.398;2023-10-31T11:30:35;6.05;;;2.80;;
67185;SDS011;54116;53.518;49.398;2023-10-31T11:33:01;7.75;;;2.83;;
67185;SDS011;54116;53.518;49.398;2023-10-31T11:35:35;7.55;;;2.70;;
67185;SDS011;54116;53.518;49.398;2023-10-31T11:38:04;6.28;;;2.70;;
67185;SDS011;54116;53.518;49.398;2023-10-31T11:40:32;6.32;;;2.65;;
67185;SDS011;54116;53.518;49.398;2023-10-31T11:43:01;6.53;;;2.67;;
67185;SDS011;54116;53.518;49.398;2023-10-31T11:45:35;6.25;;;2.67;;
67185;SDS011;54116;53.518;49.398;2023-10-31T11:48:07;6.32;;;2.72;;
67185;SDS011;54116;53.518;49.398;2023-10-31T11:50:35;6.13;;;2.45;;
67185;SDS011;54116;53.518;49.398;2023-10-31T11:53:09;5.90;;;2.50;;
67185;SDS011;54116;53.518;49.398;2023-10-31T11:55:41;7.88;;;2.72;;
67185;SDS011;54116;53.518;49.398;2023-10-31T11:58:18;5.53;;;2.50;;
67185;SDS011;54116;53.518;49.398;2023-10-31T12:00:46;4.85;;;2.50;;
67185;SDS011;54116;53.518;49.398;2023-10-31T12:03:16;8.02;;;2.78;;
67185;SDS011;54116;53.518;49.398;2023-10-31T12:05:53;5.28;;;2.50;;
67185;SDS011;54116;53.518;49.398;2023-10-31T12:08:58;4.80;;;2.17;;
67185;SDS011;54116;53.518;49.398;2023-10-31T12:11:15;5.20;;;2.28;;
67185;SDS011;54116;53.518;49.398;2023-10-31T12:13:53;12.43;;;2.75;;
67185;SDS011;54116;53.518;49.398;2023-10-31T12:16:25;9.38;;;2.95;;
67185;SDS011;54116;53.518;49.398;2023-10-31T12:18:56;10.35;;;3.13;;
67185;SDS011;54116;53.518;49.398;2023-10-31T12:21:44;11.18;;;2.97;;
67185;SDS011;54116;53.518;49.398;2023-10-31T12:24:16;10.20;;;2.85;;
67185;SDS011;54116;53.518;49.398;2023-10-31T12:26:43;9.00;;;2.38;;
67185;SDS011;54116;53.518;49.398;2023-10-31T12:29:16;10.38;;;2.38;;
67185;SDS011;54116;53.518;49.398;2023-10-31T12:31:47;7.75;;;2.35;;
67185;SDS011;54116;53.518;49.398;2023-10-31T12:34:19;9.70;;;2.60;;
67185;SDS011;54116;53.518;49.398;2023-10-31T12:36:47;10.45;;;2.72;;
67185;SDS011;54116;53.518;49.398;2023-10-31T12:39:15;11.35;;;2.30;;
67185;SDS011;54116;53.518;49.398;2023-10-31T12:41:43;11.07;;;2.53;;
67185;SDS011;54116;53.518;49.398;2023-10-31T12:44:11;15.10;;;2.65;;
67185;SDS011;54116;53.518;49.398;2023-10-31T12:46:42;9.93;;;2.42;;
67185;SDS011;54116;53.518;49.398;2023-10-31T12:49:12;11.93;;;2.85;;
67185;SDS011;54116;53.518;49.398;2023-10-31T12:51:54;17.20;;;3.20;;
67185;SDS011;54116;53.518;49.398;2023-10-31T12:54:27;6.88;;;2.45;;
67185;SDS011;54116;53.518;49.398;2023-10-31T12:57:03;8.63;;;2.45;;
67185;SDS011;54116;53.518;49.398;2023-10-31T12:59:34;7.35;;;2.05;;
67185;SDS011;54116;53.518;49.398;2023-10-31T13:02:04;11.80;;;2.70;;
67185;SDS011;54116;53.518;49.398;2023-10-31T13:04:32;4.72;;;2.05;;
67185;SDS011;54116;53.518;49.398;2023-10-31T13:07:02;7.50;;;2.42;;
67185;SDS011;54116;53.518;49.398;2023-10-31T13:09:30;7.90;;;2.28;;
67185;SDS011;54116;53.518;49.398;2023-10-31T13:12:08;8.60;;;2.05;;
67185;SDS011;54116;53.518;49.398;2023-10-31T13:14:36;7.65;;;2.00;;
67185;SDS011;54116;53.518;49.398;2023-10-31T13:17:05;6.45;;;2.10;;
67185;SDS011;54116;53.518;49.398;2023-10-31T13:19:31;8.77;;;2.25;;
67185;SDS011;54116;53.518;49.398;2023-10-31T13:21:57;6.28;;;2.40;;
67185;SDS011;54116;53.518;49.398;2023-10-31T13:24:24;5.50;;;2.40;;
67185;SDS011;54116;53.518;49.398;2023-10-31T13:26:50;7.03;;;2.15;;
67185;SDS011;54116;53.518;49.398;2023-10-31T13:29:17;5.53;;;2.15;;
67185;SDS011;54116;53.518;49.398;2023-10-31T13:31:45;6.75;;;2.70;;
67185;SDS011;54116;53.518;49.398;2023-10-31T13:34:11;8.43;;;2.50;;
67185;SDS011;54116;53.518;49.398;2023-10-31T13:36:37;7.43;;;2.22;;
67185;SDS011;54116;53.518;49.398;2023-10-31T13:39:04;9.70;;;2.33;;
67185;SDS011;54116;53.518;49.398;2023-10-31T13:41:30;10.32;;;2.40;;
67185;SDS011;54116;53.518;49.398;2023-10-31T13:43:56;6.45;;;2.03;;
67185;SDS011;54116;53.518;49.398;2023-10-31T13:46:22;5.88;;;1.80;;
67185;SDS011;54116;53.518;49.398;2023-10-31T13:48:55;6.55;;;1.85;;
67185;SDS011;54116;53.518;49.398;2023-10-31T13:51:21;5.85;;;2.10;;
67185;SDS011;54116;53.518;49.398;2023-10-31T13:53:47;7.97;;;2.08;;
67185;SDS011;54116;53.518;49.398;2023-10-31T13:56:15;7.10;;;2.50;;
67185;SDS011;54116;53.518;49.398;2023-10-31T13:58:42;4.90;;;2.00;;
67185;SDS011;54116;53.518;49.398;2023-10-31T14:01:08;6.78;;;2.30;;
67185;SDS011;54116;53.518;49.398;2023-10-31T14:03:34;6.95;;;2.50;;
67185;SDS011;54116;53.518;49.398;2023-10-31T14:06:01;7.38;;;2.03;;
67185;SDS011;54116;53.518;49.398;2023-10-31T14:08:27;7.07;;;2.15;;
67185;SDS011;54116;53.518;49.398;2023-10-31T14:10:53;6.07;;;2.33;;
67185;SDS011;54116;53.518;49.398;2023-10-31T14:13:20;6.72;;;2.47;;
67185;SDS011;54116;53.518;49.398;2023-10-31T14:15:46;7.00;;;2.25;;
67185;SDS011;54116;53.518;49.398;2023-10-31T14:18:12;4.90;;;1.92;;
67185;SDS011;54116;53.518;49.398;2023-10-31T14:20:41;6.15;;;2.50;;
67185;SDS011;54116;53.518;49.398;2023-10-31T14:23:07;5.88;;;2.28;;
67185;SDS011;54116;53.518;49.398;2023-10-31T14:25:33;5.55;;;2.45;;
67185;SDS011;54116;53.518;49.398;2023-10-31T14:27:59;6.63;;;2.22;;
67185;SDS011;54116;53.518;49.398;2023-10-31T14:30:25;6.25;;;2.63;;
67185;SDS011;54116;53.518;49.398;2023-10-31T14:32:52;10.98;;;2.67;;
67185;SDS011;54116;53.518;49.398;2023-10-31T14:35:18;8.85;;;2.10;;
67185;SDS011;54116;53.518;49.398;2023-10-31T14:37:44;5.10;;;2.00;;
67185;SDS011;54116;53.518;49.398;2023-10-31T14:40:10;6.70;;;2.20;;
67185;SDS011;54116;53.518;49.398;2023-10-31T14:42:36;6.30;;;1.92;;
67185;SDS011;54116;53.518;49.398;2023-10-31T14:45:03;5.82;;;1.95;;
67185;SDS011;54116;53.518;49.398;2023-10-31T14:47:29;4.88;;;1.92;;
67185;SDS011;54116;53.518;49.398;2023-10-31T14:49:55;5.15;;;2.00;;
67185;SDS011;54116;53.518;49.398;2023-10-31T14:52:21;5.25;;;1.92;;
67185;SDS011;54116;53.518;49.398;2023-10-31T14:54:48;4.55;;;1.92;;
67185;SDS011;54116;53.518;49.398;2023-10-31T14:57:15;6.35;;;1.98;;
67185;SDS011;54116;53.518;49.398;2023-10-31T14:59:41;6.60;;;2.30;;
67185;SDS011;54116;53.518;49.398;2023-10-31T15:02:07;11.68;;;3.58;;
67185;SDS011;54116;53.518;49.398;2023-10-31T15:04:33;6.25;;;2.17;;
67185;SDS011;54116;53.518;49.398;2023-10-31T15:06:59;6.63;;;2.03;;
67185;SDS011;54116;53.518;49.398;2023-10-31T15:09:26;11.18;;;2.30;;
67185;SDS011;54116;53.518;49.398;2023-10-31T15:11:52;6.38;;;1.98;;
67185;SDS011;54116;53.518;49.398;2023-10-31T15:14:18;4.20;;;1.75;;
67185;SDS011;54116;53.518;49.398;2023-10-31T15:16:44;6.57;;;1.70;;
67185;SDS011;54116;53.518;49.398;2023-10-31T15:19:11;8.38;;;2.08;;
67185;SDS011;54116;53.518;49.398;2023-10-31T15:21:37;4.53;;;1.83;;
67185;SDS011;54116;53.518;49.398;2023-10-31T15:24:03;4.70;;;1.90;;
67185;SDS011;54116;53.518;49.398;2023-10-31T15:26:33;5.85;;;1.80;;
67185;SDS011;54116;53.518;49.398;2023-10-31T15:28:59;6.85;;;2.00;;
67185;SDS011;54116;53.518;49.398;2023-10-31T15:31:25;4.82;;;1.85;;
67185;SDS011;54116;53.518;49.398;2023-10-31T15:33:51;4.50;;;1.73;;
67185;SDS011;54116;53.518;49.398;2023-10-31T15:36:17;7.80;;;2.50;;
67185;SDS011;54116;53.518;49.398;2023-10-31T15:38:43;6.60;;;2.38;;
67185;SDS011;54116;53.518;49.398;2023-10-31T15:41:09;8.05;;;2.30;;
67185;SDS011;54116;53.518;49.398;2023-10-31T15:43:38;8.13;;;2.38;;
67185;SDS011;54116;53.518;49.398;2023-10-31T15:48:29;6.15;;;2.25;;
67185;SDS011;54116;53.518;49.398;2023-10-31T15:50:55;5.85;;;2.00;;
67185;SDS011;54116;53.518;49.398;2023-10-31T15:53:21;6.57;;;2.05;;
67185;SDS011;54116;53.518;49.398;2023-10-31T15:55:49;5.45;;;2.17;;
67185;SDS011;54116;53.518;49.398;2023-10-31T15:58:15;5.78;;;2.28;;
67185;SDS011;54116;53.518;49.398;2023-10-31T16:00:42;9.50;;;2.50;;
67185;SDS011;54116;53.518;49.398;2023-10-31T16:03:08;6.15;;;2.30;;
67185;SDS011;54116;53.518;49.398;2023-10-31T16:05:34;6.60;;;2.60;;
67185;SDS011;54116;53.518;49.398;2023-10-31T16:15:18;5.15;;;2.03;;
67185;SDS011;54116;53.518;49.398;2023-10-31T16:17:44;8.27;;;2.33;;
67185;SDS011;54116;53.518;49.398;2023-10-31T16:25:03;7.30;;;2.25;;
67185;SDS011;54116;53.518;49.398;2023-10-31T16:27:30;5.00;;;2.33;;
67185;SDS011;54116;53.518;49.398;2023-10-31T16:29:56;6.30;;;2.00;;
67185;SDS011;54116;53.518;49.398;2023-10-31T16:37:17;8.57;;;2.50;;
67185;SDS011;54116;53.518;49.398;2023-10-31T16:39:43;6.32;;;2.63;;